createdAt,value
2018-06-21T00:01:08.825Z,98.69
2018-06-21T00:03:37.274Z,99.65
2018-06-21T00:06:05.688Z,100.00
2018-06-21T00:08:34.156Z,100.00
2018-06-21T00:11:02.528Z,100.00
2018-06-21T00:13:31.021Z,100.00
2018-06-21T00:15:59.428Z,100.00
2018-06-21T00:18:27.869Z,100.00
2018-06-21T00:20:56.392Z,100.00
2018-06-21T00:23:24.889Z,100.00
2018-06-21T00:25:53.559Z,100.00
2018-06-21T00:28:22.174Z,100.00
2018-06-21T00:30:50.699Z,100.00
2018-06-21T00:33:19.120Z,100.00
2018-06-21T00:35:47.577Z,100.00
2018-06-21T00:38:16.037Z,100.00
2018-06-21T00:40:44.458Z,100.00
2018-06-21T00:43:12.971Z,100.00
2018-06-21T00:45:41.465Z,100.00
2018-06-21T00:48:09.918Z,100.00
2018-06-21T00:50:38.356Z,100.00
2018-06-21T00:53:06.697Z,100.00
2018-06-21T00:55:46.457Z,100.00
2018-06-21T00:58:14.911Z,100.00
2018-06-21T01:00:43.259Z,100.00
2018-06-21T01:03:11.701Z,100.00
2018-06-21T01:05:40.170Z,100.00
2018-06-21T01:08:08.640Z,100.00
2018-06-21T01:10:37.063Z,100.00
2018-06-21T01:13:05.687Z,100.00
2018-06-21T01:15:34.092Z,100.00
2018-06-21T01:18:02.467Z,100.00
2018-06-21T01:20:30.884Z,100.00
2018-06-21T01:22:59.273Z,100.00
2018-06-21T01:25:27.816Z,100.00
2018-06-21T01:27:56.291Z,100.00
2018-06-21T01:30:24.629Z,100.00
2018-06-21T01:32:53.175Z,100.00
2018-06-21T01:35:21.651Z,100.00
2018-06-21T01:37:49.931Z,100.00
2018-06-21T01:40:18.266Z,100.00
2018-06-21T01:42:46.660Z,100.00
2018-06-21T01:45:15.075Z,100.00
2018-06-21T01:47:43.392Z,100.00
2018-06-21T01:50:11.800Z,100.00
2018-06-21T01:52:40.155Z,100.00
2018-06-21T01:55:08.575Z,100.00
2018-06-21T01:57:36.919Z,100.00
2018-06-21T02:00:05.395Z,100.00
2018-06-21T02:02:33.794Z,100.00
2018-06-21T02:05:02.178Z,100.00
2018-06-21T02:07:30.487Z,100.00
2018-06-21T02:09:58.922Z,100.00
2018-06-21T02:12:27.243Z,100.00
2018-06-21T02:14:55.633Z,100.00
2018-06-21T02:17:24.006Z,100.00
2018-06-21T02:19:52.367Z,100.00
2018-06-21T02:22:20.673Z,100.00
2018-06-21T02:24:49.761Z,100.00
2018-06-21T02:27:18.112Z,100.00
2018-06-21T02:29:46.558Z,100.00
2018-06-21T02:32:14.925Z,100.00
2018-06-21T02:34:43.228Z,100.00
2018-06-21T02:37:11.694Z,100.00
2018-06-21T02:39:40.077Z,100.00
2018-06-21T02:42:08.428Z,100.00
2018-06-21T02:44:36.732Z,100.00
2018-06-21T02:47:05.307Z,100.00
2018-06-21T02:49:34.441Z,100.00
2018-06-21T02:52:02.862Z,100.00
2018-06-21T02:54:31.318Z,100.00
2018-06-21T02:56:59.688Z,100.00
2018-06-21T02:59:28.006Z,100.00
2018-06-21T03:01:57.040Z,100.00
2018-06-21T03:04:25.424Z,100.00
2018-06-21T03:06:53.838Z,100.00
2018-06-21T03:09:22.254Z,100.00
2018-06-21T03:11:50.587Z,100.00
2018-06-21T03:14:18.940Z,100.00
2018-06-21T03:16:47.275Z,100.00
2018-06-21T03:19:15.694Z,100.00
2018-06-21T03:21:44.149Z,100.00
2018-06-21T03:24:12.522Z,100.00
2018-06-21T03:26:40.833Z,100.00
2018-06-21T03:29:09.173Z,100.00
2018-06-21T03:31:37.947Z,100.00
2018-06-21T03:34:06.510Z,100.00
2018-06-21T03:36:34.994Z,100.00
2018-06-21T03:39:03.659Z,100.00
2018-06-21T03:41:31.998Z,100.00
2018-06-21T03:44:00.334Z,100.00
2018-06-21T03:46:28.680Z,100.00
2018-06-21T03:48:57.032Z,100.00
2018-06-21T03:51:25.412Z,100.00
2018-06-21T03:53:53.862Z,100.00
2018-06-21T03:56:22.184Z,100.00
2018-06-21T03:58:50.554Z,100.00
2018-06-21T04:01:18.946Z,100.00
2018-06-21T04:03:47.257Z,100.00
2018-06-21T04:06:15.659Z,100.00
2018-06-21T04:08:44.066Z,100.00
2018-06-21T04:11:12.501Z,100.00
2018-06-21T04:13:41.539Z,100.00
2018-06-21T04:16:10.458Z,100.00
2018-06-21T04:18:38.803Z,100.00
2018-06-21T04:21:09.183Z,100.00
2018-06-21T04:23:37.591Z,100.00
2018-06-21T04:26:06.779Z,100.00
2018-06-21T04:28:35.723Z,100.00
2018-06-21T04:31:06.218Z,100.00
2018-06-21T04:33:35.690Z,100.00
2018-06-21T04:36:04.149Z,100.00
2018-06-21T04:38:32.452Z,100.00
2018-06-21T04:41:00.742Z,100.00
2018-06-21T04:43:29.149Z,100.00
2018-06-21T04:45:57.536Z,100.00
2018-06-21T04:48:25.854Z,100.00
2018-06-21T04:50:54.318Z,100.00
2018-06-21T04:53:22.607Z,100.00
2018-06-21T04:55:50.993Z,99.52
2018-06-21T04:58:19.329Z,100.00
2018-06-21T05:00:47.708Z,96.96
2018-06-21T05:03:16.325Z,98.26
2018-06-21T05:05:45.463Z,94.41
2018-06-21T05:08:13.857Z,95.73
2018-06-21T05:10:42.406Z,93.77
2018-06-21T05:13:10.929Z,92.14
2018-06-21T05:15:39.355Z,91.32
2018-06-21T05:18:07.778Z,91.86
2018-06-21T05:20:37.420Z,90.11
2018-06-21T05:23:05.977Z,90.32
2018-06-21T05:25:34.387Z,91.04
2018-06-21T05:28:02.704Z,87.90
2018-06-21T05:30:31.157Z,87.84
2018-06-21T05:32:59.718Z,89.72
2018-06-21T05:35:28.098Z,87.42
2018-06-21T05:37:57.238Z,86.39
2018-06-21T05:40:33.708Z,86.70
2018-06-21T05:43:02.752Z,85.59
2018-06-21T05:45:31.176Z,86.72
2018-06-21T05:48:02.080Z,84.10
2018-06-21T05:50:31.634Z,84.56
2018-06-21T05:53:00.429Z,83.85
2018-06-21T05:55:29.655Z,81.68
2018-06-21T05:57:58.068Z,80.28
2018-06-21T06:00:26.393Z,76.79
2018-06-21T06:02:54.757Z,77.17
2018-06-21T06:05:22.988Z,73.67
2018-06-21T06:07:51.651Z,75.55
2018-06-21T06:10:20.246Z,73.33
2018-06-21T06:12:48.774Z,72.93
2018-06-21T06:15:17.014Z,74.69
2018-06-21T06:17:45.466Z,75.86
2018-06-21T06:20:13.857Z,75.87
2018-06-21T06:22:42.269Z,76.13
2018-06-21T06:25:10.824Z,76.03
2018-06-21T06:27:39.133Z,72.29
2018-06-21T06:30:07.948Z,73.89
2018-06-21T06:32:36.397Z,73.87
2018-06-21T06:35:04.686Z,72.92
2018-06-21T06:37:33.046Z,71.09
2018-06-21T06:40:01.346Z,68.96
2018-06-21T06:42:29.764Z,66.97
2018-06-21T06:44:58.065Z,66.69
2018-06-21T06:47:26.827Z,67.87
2018-06-21T06:49:55.161Z,66.50
2018-06-21T06:52:23.699Z,66.14
2018-06-21T06:54:52.140Z,65.59
2018-06-21T06:57:20.408Z,62.80
2018-06-21T06:59:48.704Z,62.63
2018-06-21T07:02:17.214Z,63.13
2018-06-21T07:04:45.597Z,60.86
2018-06-21T07:07:13.965Z,59.70
2018-06-21T07:09:42.454Z,61.10
2018-06-21T07:12:10.736Z,58.33
2018-06-21T07:14:39.052Z,59.86
2018-06-21T07:17:07.520Z,55.73
2018-06-21T07:19:35.809Z,53.29
2018-06-21T07:22:04.209Z,52.15
2018-06-21T07:24:32.556Z,51.63
2018-06-21T07:27:00.978Z,51.27
2018-06-21T07:29:29.265Z,51.09
2018-06-21T07:31:57.666Z,50.39
2018-06-21T07:34:25.986Z,50.40
2018-06-21T07:36:54.390Z,49.50
2018-06-21T07:39:22.724Z,49.83
2018-06-21T07:41:51.184Z,48.97
2018-06-21T07:44:19.449Z,48.06
2018-06-21T07:46:47.797Z,47.26
2018-06-21T07:49:16.182Z,46.58
2018-06-21T07:51:44.589Z,46.71
2018-06-21T07:54:12.931Z,45.85
2018-06-21T07:56:41.549Z,44.93
2018-06-21T07:59:10.124Z,45.80
2018-06-21T08:01:38.497Z,43.97
2018-06-21T08:04:06.925Z,43.92
2018-06-21T08:06:35.312Z,43.67
2018-06-21T08:09:04.561Z,43.31
2018-06-21T08:11:32.857Z,43.38
2018-06-21T08:14:01.176Z,44.06
2018-06-21T08:16:29.548Z,43.95
2018-06-21T08:18:57.945Z,43.84
2018-06-21T08:21:26.330Z,44.44
2018-06-21T08:23:54.606Z,42.67
2018-06-21T08:26:22.933Z,44.31
2018-06-21T08:28:51.342Z,45.22
2018-06-21T08:31:19.657Z,44.88
2018-06-21T08:33:48.587Z,45.69
2018-06-21T08:36:17.163Z,45.64
2018-06-21T08:38:45.459Z,44.58
2018-06-21T08:41:13.765Z,43.51
2018-06-21T08:43:42.152Z,44.80
2018-06-21T08:46:10.583Z,45.22
2018-06-21T08:48:38.895Z,45.71
2018-06-21T08:51:07.393Z,45.58
2018-06-21T08:53:35.767Z,42.63
2018-06-21T08:56:04.229Z,43.46
2018-06-21T08:58:32.618Z,44.87
2018-06-21T09:01:00.969Z,44.43
2018-06-21T09:03:29.435Z,43.70
2018-06-21T09:05:57.776Z,40.53
2018-06-21T09:08:26.118Z,40.88
2018-06-21T09:10:54.417Z,40.72
2018-06-21T09:13:22.812Z,41.39
2018-06-21T09:15:51.058Z,40.50
2018-06-21T09:18:19.389Z,39.07
2018-06-21T09:20:47.877Z,38.82
2018-06-21T09:23:16.169Z,38.38
2018-06-21T09:25:44.572Z,38.05
2018-06-21T09:28:12.820Z,38.06
2018-06-21T09:30:41.127Z,37.34
2018-06-21T09:33:09.604Z,38.56
2018-06-21T09:35:38.048Z,40.02
2018-06-21T09:38:14.778Z,38.15
2018-06-21T09:40:48.559Z,38.31
2018-06-21T09:43:22.225Z,40.77
2018-06-21T09:45:55.920Z,40.15
2018-06-21T09:48:31.720Z,39.90
2018-06-21T09:51:01.069Z,40.87
2018-06-21T09:53:29.948Z,40.61
2018-06-21T09:55:59.557Z,40.37
2018-06-21T09:58:27.968Z,40.13
2018-06-21T10:01:02.929Z,39.58
2018-06-21T10:03:31.802Z,37.31
2018-06-21T10:06:00.076Z,38.37
2018-06-21T10:08:28.617Z,38.82
2018-06-21T10:10:56.977Z,39.64
2018-06-21T10:13:25.283Z,38.81
2018-06-21T10:15:54.082Z,39.19
2018-06-21T10:18:22.352Z,38.92
2018-06-21T10:20:50.927Z,37.60
2018-06-21T10:23:19.257Z,38.16
2018-06-21T10:25:47.645Z,39.11
2018-06-21T10:28:15.971Z,37.98
2018-06-21T10:30:44.246Z,37.25
2018-06-21T10:33:12.671Z,37.61
2018-06-21T10:35:41.036Z,35.42
2018-06-21T10:38:09.343Z,34.75
2018-06-21T10:40:37.636Z,35.54
2018-06-21T10:43:06.251Z,36.42
2018-06-21T10:45:34.823Z,37.56
2018-06-21T10:48:04.253Z,35.68
2018-06-21T10:50:32.582Z,35.89
2018-06-21T10:53:00.932Z,35.94
2018-06-21T10:55:29.357Z,35.36
2018-06-21T10:57:57.673Z,35.74
2018-06-21T11:00:26.053Z,34.79
2018-06-21T11:02:54.409Z,33.52
2018-06-21T11:05:22.742Z,34.89
2018-06-21T11:07:51.197Z,34.97
2018-06-21T11:10:20.056Z,35.70
2018-06-21T11:12:48.411Z,35.79
2018-06-21T11:15:16.690Z,34.81
2018-06-21T11:17:45.044Z,36.88
2018-06-21T11:20:13.350Z,36.30
2018-06-21T11:22:41.850Z,35.95
2018-06-21T11:25:10.139Z,36.61
2018-06-21T11:27:38.472Z,36.92
2018-06-21T11:30:07.477Z,37.40
2018-06-21T11:32:35.816Z,36.44
2018-06-21T11:35:04.291Z,37.15
2018-06-21T11:37:32.525Z,35.64
2018-06-21T11:40:00.939Z,35.37
2018-06-21T11:42:29.298Z,34.74
2018-06-21T11:44:57.623Z,34.89
2018-06-21T11:47:25.974Z,34.49
2018-06-21T11:49:55.660Z,35.64
2018-06-21T11:52:23.975Z,33.62
2018-06-21T11:54:52.289Z,33.46
2018-06-21T11:57:20.742Z,31.89
2018-06-21T11:59:49.275Z,33.70
2018-06-21T12:02:17.553Z,32.14
2018-06-21T12:04:45.910Z,33.03
2018-06-21T12:07:15.449Z,34.32
2018-06-21T12:09:43.780Z,34.24
2018-06-21T12:12:12.308Z,32.38
2018-06-21T12:14:40.669Z,29.68
2018-06-21T12:17:08.957Z,28.42
2018-06-21T12:19:37.280Z,27.92
2018-06-21T12:22:05.974Z,29.04
2018-06-21T12:24:34.244Z,27.84
2018-06-21T12:27:02.625Z,27.72
2018-06-21T12:29:30.972Z,28.77
2018-06-21T12:31:59.964Z,26.67
2018-06-21T12:34:28.317Z,28.55
2018-06-21T12:36:56.873Z,29.12
2018-06-21T12:39:25.199Z,28.81
2018-06-21T12:41:53.575Z,28.62
2018-06-21T12:44:22.309Z,29.17
2018-06-21T12:46:50.621Z,29.43
2018-06-21T12:49:18.984Z,28.02
2018-06-21T12:51:47.271Z,27.70
2018-06-21T12:54:15.748Z,29.16
2018-06-21T12:56:44.024Z,31.20
2018-06-21T12:59:12.295Z,30.11
2018-06-21T13:01:40.720Z,30.62
2018-06-21T13:04:09.201Z,32.47
2018-06-21T13:06:37.452Z,34.98
2018-06-21T13:09:17.224Z,34.68
2018-06-21T13:12:58.984Z,30.86
2018-06-21T13:15:27.522Z,27.88
2018-06-21T13:17:55.970Z,29.80
2018-06-21T13:20:24.474Z,30.75
2018-06-21T13:22:52.746Z,30.29
2018-06-21T13:25:21.039Z,29.71
2018-06-21T13:27:49.285Z,28.96
2018-06-21T13:30:17.533Z,29.20
2018-06-21T13:32:45.761Z,28.76
2018-06-21T13:35:14.295Z,26.62
2018-06-21T13:37:42.732Z,23.91
2018-06-21T13:40:11.050Z,24.97
2018-06-21T13:42:39.319Z,23.51
2018-06-21T13:45:07.759Z,23.60
2018-06-21T13:47:36.518Z,27.01
2018-06-21T13:50:05.826Z,30.65
2018-06-21T13:52:34.354Z,32.87
2018-06-21T13:55:02.865Z,35.44
2018-06-21T13:57:31.228Z,37.16
2018-06-21T13:59:59.502Z,38.98
2018-06-21T14:02:27.828Z,42.78
2018-06-21T14:04:56.245Z,43.64
2018-06-21T14:13:20.676Z,40.93
2018-06-21T14:15:49.746Z,42.71
2018-06-21T14:18:18.440Z,46.41
2018-06-21T14:20:47.794Z,48.54
2018-06-21T14:23:16.812Z,51.42
2018-06-21T14:25:45.254Z,50.37
2018-06-21T14:28:13.506Z,48.55
2018-06-21T14:30:42.001Z,45.69
2018-06-21T14:33:10.352Z,42.46
2018-06-21T14:35:39.257Z,38.89
2018-06-21T14:38:07.965Z,36.54
2018-06-21T14:40:36.267Z,35.15
2018-06-21T14:43:04.621Z,38.24
2018-06-21T14:45:33.068Z,38.27
2018-06-21T14:48:01.866Z,40.62
2018-06-21T14:50:30.240Z,41.54
2018-06-21T14:52:58.519Z,42.39
2018-06-21T14:55:27.277Z,42.50
2018-06-21T14:57:55.613Z,43.81
2018-06-21T15:00:23.912Z,44.63
2018-06-21T15:02:52.181Z,45.46
2018-06-21T15:05:20.598Z,44.41
2018-06-21T15:07:49.787Z,45.37
2018-06-21T15:10:18.151Z,42.60
2018-06-21T15:12:46.447Z,41.58
2018-06-21T15:15:14.883Z,39.75
2018-06-21T15:17:43.354Z,35.71
2018-06-21T15:20:11.720Z,38.93
2018-06-21T15:22:40.042Z,39.97
2018-06-21T15:25:08.325Z,41.23
2018-06-21T15:27:36.836Z,42.55
2018-06-21T15:30:06.317Z,44.13
2018-06-21T15:32:34.675Z,44.46
2018-06-21T15:35:03.293Z,45.06
2018-06-21T15:37:32.333Z,47.11
2018-06-21T15:40:00.753Z,45.59
2018-06-21T15:42:29.133Z,45.71
2018-06-21T15:44:57.509Z,45.81
2018-06-21T15:47:27.829Z,47.07
2018-06-21T15:49:56.201Z,48.82
2018-06-21T15:52:28.047Z,51.35
2018-06-21T15:54:56.363Z,53.13
2018-06-21T15:57:25.296Z,52.73
2018-06-21T15:59:54.971Z,54.48
2018-06-21T16:02:23.239Z,54.44
2018-06-21T16:04:52.744Z,53.65
2018-06-21T16:07:21.256Z,53.54
2018-06-21T16:09:50.108Z,54.45
2018-06-21T16:12:18.652Z,55.80
2018-06-21T16:14:47.173Z,55.39
2018-06-21T16:17:15.543Z,55.78
2018-06-21T16:19:44.740Z,56.20
2018-06-21T16:22:13.908Z,55.39
2018-06-21T16:24:42.466Z,56.47
2018-06-21T16:27:10.917Z,56.89
2018-06-21T16:29:39.313Z,57.51
2018-06-21T16:32:07.817Z,58.49
2018-06-21T16:34:36.285Z,58.97
2018-06-21T16:37:04.884Z,61.12
2018-06-21T16:39:33.275Z,63.73
2018-06-21T16:42:01.805Z,65.72
2018-06-21T16:44:31.021Z,64.17
2018-06-21T16:46:59.429Z,64.52
2018-06-21T16:49:27.840Z,65.80
2018-06-21T16:51:56.130Z,67.39
2018-06-21T16:54:25.497Z,68.25
2018-06-21T16:56:54.545Z,66.71
2018-06-21T16:59:25.066Z,62.77
2018-06-21T17:01:56.231Z,59.67
2018-06-21T17:04:26.021Z,55.07
2018-06-21T17:06:54.443Z,53.43
2018-06-21T17:09:22.901Z,52.95
2018-06-21T17:11:52.640Z,52.33
2018-06-21T17:14:21.661Z,49.80
2018-06-21T17:16:50.335Z,48.14
2018-06-21T17:19:18.657Z,47.45
2018-06-21T17:21:47.096Z,45.72
2018-06-21T17:24:15.755Z,44.60
2018-06-21T17:26:44.166Z,43.21
2018-06-21T17:29:12.592Z,40.71
2018-06-21T17:31:41.586Z,30.87
2018-06-21T17:34:10.661Z,24.92
2018-06-21T17:36:39.316Z,21.71
2018-06-21T17:39:09.123Z,20.23
2018-06-21T17:41:37.683Z,21.78
2018-06-21T17:44:06.230Z,21.12
2018-06-21T17:46:34.809Z,21.69
2018-06-21T17:49:03.284Z,22.04
2018-06-21T17:51:31.690Z,23.04
2018-06-21T17:54:00.634Z,25.01
2018-06-21T17:56:29.517Z,24.81
2018-06-21T17:58:57.963Z,23.38
2018-06-21T18:01:26.317Z,24.76
2018-06-21T18:03:54.646Z,24.30
2018-06-21T18:06:23.022Z,28.58
2018-06-21T18:08:51.655Z,32.87
2018-06-21T18:11:20.056Z,34.25
2018-06-21T18:13:48.676Z,35.14
2018-06-21T18:16:17.170Z,35.53
2018-06-21T18:18:45.899Z,34.70
2018-06-21T18:21:14.283Z,34.88
2018-06-21T18:23:43.229Z,35.49
2018-06-21T18:26:11.858Z,36.11
2018-06-21T18:28:40.806Z,34.49
2018-06-21T18:31:09.573Z,36.80
2018-06-21T18:33:39.557Z,33.68
2018-06-21T18:36:07.892Z,34.61
2018-06-21T18:38:36.254Z,33.09
2018-06-21T18:41:04.573Z,32.98
2018-06-21T18:43:33.315Z,33.70
2018-06-21T18:46:01.973Z,33.33
2018-06-21T18:48:30.408Z,33.28
2018-06-21T18:50:59.376Z,33.18
2018-06-21T18:53:27.970Z,32.43
2018-06-21T18:56:02.159Z,33.14
2018-06-21T18:58:30.471Z,33.10
2018-06-21T19:00:58.922Z,33.38
2018-06-21T19:03:27.357Z,34.19
2018-06-21T19:05:56.116Z,33.50
2018-06-21T19:08:29.809Z,34.35
2018-06-21T19:11:03.672Z,34.46
2018-06-21T19:13:32.128Z,35.47
2018-06-21T19:16:01.085Z,34.60
2018-06-21T19:18:29.670Z,34.45
2018-06-21T19:20:58.829Z,36.92
2018-06-21T19:23:27.353Z,42.51
2018-06-21T19:25:56.066Z,35.58
2018-06-21T19:28:24.439Z,35.89
2018-06-21T19:30:55.441Z,36.89
2018-06-21T19:33:23.890Z,38.35
2018-06-21T19:35:52.293Z,39.56
2018-06-21T19:38:20.748Z,37.63
2018-06-21T19:40:49.276Z,40.56
2018-06-21T19:43:17.825Z,41.46
2018-06-21T19:45:46.100Z,38.95
2018-06-21T19:48:14.458Z,40.69
2018-06-21T19:50:42.818Z,38.55
2018-06-21T19:53:11.192Z,44.08
2018-06-21T19:55:40.003Z,44.50
2018-06-21T19:58:08.486Z,38.88
2018-06-21T20:00:37.869Z,38.63
2018-06-21T20:03:08.800Z,42.20
2018-06-21T20:05:37.358Z,42.08
2018-06-21T20:08:05.828Z,47.84
2018-06-21T20:10:34.469Z,42.68
2018-06-21T20:13:02.900Z,40.84
2018-06-21T20:15:38.513Z,38.32
2018-06-21T20:18:07.107Z,40.74
2018-06-21T20:20:36.267Z,40.12
2018-06-21T20:23:04.784Z,40.57
2018-06-21T20:25:33.351Z,40.59
2018-06-21T20:28:01.775Z,43.79
2018-06-21T20:30:30.181Z,46.58
2018-06-21T20:32:58.649Z,39.84
2018-06-21T20:35:27.384Z,39.18
2018-06-21T20:37:55.865Z,39.92
2018-06-21T20:40:25.239Z,40.72
2018-06-21T20:42:54.321Z,40.70
2018-06-21T20:45:23.328Z,40.83
2018-06-21T20:47:53.783Z,41.85
2018-06-21T20:50:22.269Z,43.21
2018-06-21T20:52:50.788Z,41.60
2018-06-21T20:55:19.208Z,44.34
2018-06-21T20:57:49.246Z,50.12
2018-06-21T21:00:19.819Z,42.91
2018-06-21T21:02:49.451Z,46.64
2018-06-21T21:05:19.214Z,43.14
2018-06-21T21:07:49.785Z,44.75
2018-06-21T21:10:19.992Z,43.26
2018-06-21T21:12:49.404Z,49.61
2018-06-21T21:15:18.448Z,43.98
2018-06-21T21:17:47.891Z,44.29
2018-06-21T21:20:17.106Z,46.28
2018-06-21T21:22:46.604Z,45.48
2018-06-21T21:25:16.193Z,45.81
2018-06-21T21:27:46.997Z,45.09
2018-06-21T21:30:19.054Z,46.03
2018-06-21T21:33:43.059Z,45.92
2018-06-21T21:36:18.030Z,47.27
2018-06-21T21:38:51.108Z,46.55
2018-06-21T21:41:22.088Z,47.22
2018-06-21T21:43:50.822Z,48.20
2018-06-21T21:46:20.672Z,49.11
2018-06-21T21:48:50.055Z,49.82
2018-06-21T21:51:20.563Z,49.28
2018-06-21T21:53:49.912Z,52.40
2018-06-21T21:56:18.812Z,50.04
2018-06-21T21:58:48.259Z,51.18
2018-06-21T22:01:17.645Z,50.98
2018-06-21T22:03:46.746Z,50.58
2018-06-21T22:06:16.734Z,50.77
2018-06-21T22:08:45.877Z,50.43
2018-06-21T22:11:16.350Z,50.50
2018-06-21T22:13:46.070Z,50.65
2018-06-21T22:16:23.026Z,50.44
2018-06-21T22:18:54.131Z,49.53
2018-06-21T22:21:23.199Z,50.16
2018-06-21T22:23:52.149Z,50.08
2018-06-21T22:26:21.142Z,50.36
2018-06-21T22:28:49.848Z,52.26
2018-06-21T22:31:18.721Z,51.39
2018-06-21T22:33:47.653Z,51.73
2018-06-21T22:36:18.141Z,50.94
2018-06-21T22:38:47.049Z,51.04
2018-06-21T22:41:17.410Z,51.13
2018-06-21T22:43:46.628Z,52.85
2018-06-21T22:46:15.387Z,52.42
2018-06-21T22:48:44.213Z,54.50
2018-06-21T22:51:12.893Z,53.19
2018-06-21T22:53:41.455Z,54.50
2018-06-21T22:56:10.448Z,54.32
2018-06-21T22:58:39.479Z,52.69
2018-06-21T23:01:08.236Z,51.55
2018-06-21T23:03:37.902Z,51.97
2018-06-21T23:06:07.143Z,50.99
2018-06-21T23:08:36.125Z,51.54
2018-06-21T23:11:05.149Z,50.70
2018-06-21T23:13:35.605Z,51.10
2018-06-21T23:16:04.428Z,50.45
2018-06-21T23:18:45.408Z,50.79
2018-06-21T23:21:14.673Z,51.08
2018-06-21T23:23:43.771Z,51.95
2018-06-21T23:26:13.331Z,51.88
2018-06-21T23:28:42.690Z,50.99
2018-06-21T23:31:11.716Z,52.44
2018-06-21T23:33:42.421Z,51.82
2018-06-21T23:36:11.952Z,53.23
2018-06-21T23:38:41.042Z,52.58
2018-06-21T23:41:09.767Z,52.97
2018-06-21T23:43:39.005Z,53.57
2018-06-21T23:46:08.192Z,54.01
2018-06-21T23:48:37.730Z,53.44
2018-06-21T23:51:06.634Z,54.91
2018-06-21T23:53:35.570Z,54.27
2018-06-21T23:56:04.805Z,55.60
2018-06-21T23:58:33.656Z,55.65
